sensor_id;sensor_type;location;lat;lon;timestamp;pressure;altitude;pressure_sealevel;temperature;humidity
28683;BME280;15862;43.062;25.626;2022-10-19T00:00:26;100725.59;;;3.29;100.00
28683;BME280;15862;43.062;25.626;2022-10-19T00:02:51;100718.22;;;3.20;100.00
28683;BME280;15862;43.062;25.626;2022-10-19T00:05:16;100717.22;;;3.26;100.00
28683;BME280;15862;43.062;25.626;2022-10-19T00:07:42;100715.72;;;3.19;100.00
28683;BME280;15862;43.062;25.626;2022-10-19T00:10:08;100716.34;;;3.25;100.00
28683;BME280;15862;43.062;25.626;2022-10-19T00:12:33;100711.25;;;3.25;100.00
28683;BME280;15862;43.062;25.626;2022-10-19T00:14:59;100702.19;;;3.17;100.00
28683;BME280;15862;43.062;25.626;2022-10-19T00:17:24;100708.41;;;3.08;100.00
28683;BME280;15862;43.062;25.626;2022-10-19T00:19:49;100701.63;;;3.07;100.00
28683;BME280;15862;43.062;25.626;2022-10-19T00:22:15;100706.72;;;3.07;100.00
28683;BME280;15862;43.062;25.626;2022-10-19T00:24:40;100706.06;;;3.01;100.00
28683;BME280;15862;43.062;25.626;2022-10-19T00:27:06;100689.16;;;2.99;100.00
28683;BME280;15862;43.062;25.626;2022-10-19T00:29:31;100690.94;;;2.95;100.00
28683;BME280;15862;43.062;25.626;2022-10-19T00:31:57;100699.34;;;2.99;100.00
28683;BME280;15862;43.062;25.626;2022-10-19T00:34:22;100685.75;;;2.98;100.00
28683;BME280;15862;43.062;25.626;2022-10-19T00:36:48;100669.00;;;2.90;100.00
28683;BME280;15862;43.062;25.626;2022-10-19T00:39:15;100675.72;;;2.92;100.00
28683;BME280;15862;43.062;25.626;2022-10-19T00:41:43;100690.91;;;2.97;100.00
28683;BME280;15862;43.062;25.626;2022-10-19T00:46:36;100675.72;;;2.92;100.00
28683;BME280;15862;43.062;25.626;2022-10-19T00:49:14;100674.72;;;2.98;100.00
28683;BME280;15862;43.062;25.626;2022-10-19T00:51:44;100665.53;;;2.92;100.00
28683;BME280;15862;43.062;25.626;2022-10-19T00:54:11;100668.94;;;2.91;100.00
28683;BME280;15862;43.062;25.626;2022-10-19T00:56:39;100664.91;;;2.86;100.00
28683;BME280;15862;43.062;25.626;2022-10-19T00:59:05;100649.19;;;2.70;100.00
28683;BME280;15862;43.062;25.626;2022-10-19T01:01:32;100657.56;;;2.75;100.00
28683;BME280;15862;43.062;25.626;2022-10-19T01:03:59;100660.88;;;2.79;100.00
28683;BME280;15862;43.062;25.626;2022-10-19T01:06:25;100646.38;;;2.79;100.00
28683;BME280;15862;43.062;25.626;2022-10-19T01:08:51;100637.25;;;2.72;100.00
28683;BME280;15862;43.062;25.626;2022-10-19T01:11:25;100646.31;;;2.81;100.00
28683;BME280;15862;43.062;25.626;2022-10-19T01:19:38;100642.41;;;2.69;100.00
28683;BME280;15862;43.062;25.626;2022-10-19T01:32:37;100618.44;;;2.47;100.00
28683;BME280;15862;43.062;25.626;2022-10-19T01:35:11;100627.75;;;2.48;100.00
28683;BME280;15862;43.062;25.626;2022-10-19T01:40:38;100622.97;;;2.39;100.00
28683;BME280;15862;43.062;25.626;2022-10-19T01:46:11;100624.16;;;2.26;100.00
28683;BME280;15862;43.062;25.626;2022-10-19T01:48:42;100631.81;;;2.26;100.00
28683;BME280;15862;43.062;25.626;2022-10-19T01:51:17;100610.03;;;2.17;100.00
28683;BME280;15862;43.062;25.626;2022-10-19T01:53:48;100620.75;;;2.27;100.00
28683;BME280;15862;43.062;25.626;2022-10-19T01:56:17;100615.47;;;2.33;100.00
28683;BME280;15862;43.062;25.626;2022-10-19T01:58:45;100600.41;;;2.26;100.00
28683;BME280;15862;43.062;25.626;2022-10-19T02:01:12;100603.72;;;2.29;100.00
28683;BME280;15862;43.062;25.626;2022-10-19T02:03:39;100609.59;;;2.31;100.00
28683;BME280;15862;43.062;25.626;2022-10-19T02:06:07;100593.88;;;2.18;100.00
28683;BME280;15862;43.062;25.626;2022-10-19T02:08:39;100608.94;;;2.25;100.00
28683;BME280;15862;43.062;25.626;2022-10-19T02:11:06;100596.50;;;2.15;100.00
28683;BME280;15862;43.062;25.626;2022-10-19T02:13:32;100588.28;;;2.05;100.00
28683;BME280;15862;43.062;25.626;2022-10-19T02:16:00;100606.75;;;2.12;100.00
28683;BME280;15862;43.062;25.626;2022-10-19T02:18:32;100599.75;;;2.20;100.00
28683;BME280;15862;43.062;25.626;2022-10-19T02:21:03;100601.53;;;2.18;100.00
28683;BME280;15862;43.062;25.626;2022-10-19T02:23:29;100571.38;;;2.03;100.00
28683;BME280;15862;43.062;25.626;2022-10-19T02:25:55;100587.44;;;2.05;100.00
28683;BME280;15862;43.062;25.626;2022-10-19T02:28:22;100605.94;;;2.11;100.00
28683;BME280;15862;43.062;25.626;2022-10-19T02:30:48;100601.78;;;2.09;100.00
28683;BME280;15862;43.062;25.626;2022-10-19T02:33:14;100592.47;;;2.08;100.00
28683;BME280;15862;43.062;25.626;2022-10-19T02:35:40;100601.84;;;2.06;100.00
28683;BME280;15862;43.062;25.626;2022-10-19T02:38:06;100601.84;;;2.06;100.00
28683;BME280;15862;43.062;25.626;2022-10-19T02:40:37;100602.09;;;1.98;100.00
28683;BME280;15862;43.062;25.626;2022-10-19T02:43:09;100601.16;;;2.01;100.00
28683;BME280;15862;43.062;25.626;2022-10-19T02:45:41;100607.06;;;2.03;100.00
28683;BME280;15862;43.062;25.626;2022-10-19T02:48:12;100600.53;;;1.93;100.00
28683;BME280;15862;43.062;25.626;2022-10-19T02:50:46;100590.53;;;1.87;100.00
28683;BME280;15862;43.062;25.626;2022-10-19T02:53:12;100595.50;;;1.90;100.00
28683;BME280;15862;43.062;25.626;2022-10-19T02:55:38;100599.03;;;1.86;100.00
28683;BME280;15862;43.062;25.626;2022-10-19T02:58:04;100605.22;;;1.77;100.00
28683;BME280;15862;43.062;25.626;2022-10-19T03:00:29;100597.53;;;1.79;100.00
28683;BME280;15862;43.062;25.626;2022-10-19T03:02:55;100606.59;;;1.89;100.00
28683;BME280;15862;43.062;25.626;2022-10-19T03:05:20;100609.16;;;1.87;100.00
28683;BME280;15862;43.062;25.626;2022-10-19T03:07:46;100606.56;;;1.90;100.00
28683;BME280;15862;43.062;25.626;2022-10-19T03:10:11;100610.78;;;1.90;100.00
28683;BME280;15862;43.062;25.626;2022-10-19T03:12:36;100568.03;;;1.72;100.00
28683;BME280;15862;43.062;25.626;2022-10-19T03:15:03;100596.44;;;1.87;100.00
28683;BME280;15862;43.062;25.626;2022-10-19T03:17:29;100598.22;;;1.84;100.00
28683;BME280;15862;43.062;25.626;2022-10-19T03:19:54;100596.44;;;1.87;100.00
28683;BME280;15862;43.062;25.626;2022-10-19T03:22:20;100599.09;;;1.83;100.00
28683;BME280;15862;43.062;25.626;2022-10-19T03:24:45;100595.72;;;1.82;100.00
28683;BME280;15862;43.062;25.626;2022-10-19T03:27:10;100594.28;;;1.74;100.00
28683;BME280;15862;43.062;25.626;2022-10-19T03:29:36;100594.41;;;1.69;100.00
28683;BME280;15862;43.062;25.626;2022-10-19T03:32:01;100572.88;;;1.49;100.00
28683;BME280;15862;43.062;25.626;2022-10-19T03:34:27;100576.25;;;1.51;100.00
28683;BME280;15862;43.062;25.626;2022-10-19T03:36:52;100594.41;;;1.69;100.00
28683;BME280;15862;43.062;25.626;2022-10-19T03:39:18;100592.09;;;1.60;100.00
28683;BME280;15862;43.062;25.626;2022-10-19T03:41:43;100581.41;;;1.48;100.00
28683;BME280;15862;43.062;25.626;2022-10-19T03:44:10;100593.94;;;1.55;100.00
28683;BME280;15862;43.062;25.626;2022-10-19T03:46:36;100600.59;;;1.59;100.00
28683;BME280;15862;43.062;25.626;2022-10-19T03:49:03;100598.75;;;1.64;100.00
28683;BME280;15862;43.062;25.626;2022-10-19T03:51:30;100589.50;;;1.62;100.00
28683;BME280;15862;43.062;25.626;2022-10-19T03:54:00;100595.63;;;1.55;100.00
28683;BME280;15862;43.062;25.626;2022-10-19T03:56:29;100592.25;;;1.54;100.00
28683;BME280;15862;43.062;25.626;2022-10-19T03:58:56;100571.31;;;1.45;100.00
28683;BME280;15862;43.062;25.626;2022-10-19T04:01:25;100595.88;;;1.46;100.00
28683;BME280;15862;43.062;25.626;2022-10-19T04:03:59;100559.06;;;1.27;100.00
28683;BME280;15862;43.062;25.626;2022-10-19T04:06:28;100569.78;;;1.38;100.00
28683;BME280;15862;43.062;25.626;2022-10-19T04:08:55;100588.00;;;1.55;100.00
28683;BME280;15862;43.062;25.626;2022-10-19T04:11:23;100566.34;;;1.39;100.00
28683;BME280;15862;43.062;25.626;2022-10-19T04:13:50;100587.28;;;1.50;100.00
28683;BME280;15862;43.062;25.626;2022-10-19T04:16:17;100578.09;;;1.45;100.00
28683;BME280;15862;43.062;25.626;2022-10-19T04:18:42;100569.66;;;1.43;100.00
28683;BME280;15862;43.062;25.626;2022-10-19T04:21:24;100563.88;;;1.38;100.00
28683;BME280;15862;43.062;25.626;2022-10-19T04:23:52;100579.72;;;1.47;100.00
28683;BME280;15862;43.062;25.626;2022-10-19T04:26:18;100578.22;;;1.40;100.00
28683;BME280;15862;43.062;25.626;2022-10-19T04:28:44;100571.44;;;1.39;100.00
28683;BME280;15862;43.062;25.626;2022-10-19T04:31:10;100583.13;;;1.46;100.00
28683;BME280;15862;43.062;25.626;2022-10-19T04:33:37;100588.09;;;1.52;100.00
28683;BME280;15862;43.062;25.626;2022-10-19T04:36:05;100580.59;;;1.46;100.00
28683;BME280;15862;43.062;25.626;2022-10-19T04:38:32;100583.13;;;1.46;100.00
28683;BME280;15862;43.062;25.626;2022-10-19T04:41:09;100577.28;;;1.44;100.00
28683;BME280;15862;43.062;25.626;2022-10-19T04:43:34;100574.78;;;1.41;100.00
28683;BME280;15862;43.062;25.626;2022-10-19T04:46:08;100573.06;;;1.43;100.00
28683;BME280;15862;43.062;25.626;2022-10-19T04:48:35;100579.72;;;1.47;100.00
28683;BME280;15862;43.062;25.626;2022-10-19T04:51:01;100574.34;;;1.57;100.00
28683;BME280;15862;43.062;25.626;2022-10-19T04:53:27;100581.84;;;1.63;100.00
28683;BME280;15862;43.062;25.626;2022-10-19T04:55:53;100582.72;;;1.61;100.00
28683;BME280;15862;43.062;25.626;2022-10-19T04:58:18;100579.31;;;1.62;100.00
28683;BME280;15862;43.062;25.626;2022-10-19T05:00:44;100577.56;;;1.64;100.00
28683;BME280;15862;43.062;25.626;2022-10-19T05:03:09;100581.06;;;1.60;100.00
28683;BME280;15862;43.062;25.626;2022-10-19T05:05:35;100584.25;;;1.68;100.00
28683;BME280;15862;43.062;25.626;2022-10-19T05:08:00;100589.13;;;1.75;100.00
28683;BME280;15862;43.062;25.626;2022-10-19T05:10:26;100584.56;;;1.88;100.00
28683;BME280;15862;43.062;25.626;2022-10-19T05:12:51;100592.03;;;1.94;100.00
28683;BME280;15862;43.062;25.626;2022-10-19T05:15:17;100594.13;;;2.09;100.00
28683;BME280;15862;43.062;25.626;2022-10-19T05:17:43;100578.81;;;2.10;100.00
28683;BME280;15862;43.062;25.626;2022-10-19T05:20:09;100585.63;;;2.37;100.00
28683;BME280;15862;43.062;25.626;2022-10-19T05:22:37;100585.50;;;2.41;100.00
28683;BME280;15862;43.062;25.626;2022-10-19T05:25:04;100582.53;;;2.55;100.00
28683;BME280;15862;43.062;25.626;2022-10-19T05:27:29;100583.41;;;2.54;100.00
28683;BME280;15862;43.062;25.626;2022-10-19T05:29:55;100562.28;;;2.50;100.00
28683;BME280;15862;43.062;25.626;2022-10-19T05:32:20;100587.50;;;2.87;100.00
28683;BME280;15862;43.062;25.626;2022-10-19T05:34:46;100582.66;;;3.03;100.00
28683;BME280;15862;43.062;25.626;2022-10-19T05:37:11;100563.47;;;2.94;100.00
28683;BME280;15862;43.062;25.626;2022-10-19T05:39:37;100562.47;;;3.22;100.00
28683;BME280;15862;43.062;25.626;2022-10-19T05:42:02;100568.31;;;3.25;100.00
28683;BME280;15862;43.062;25.626;2022-10-19T05:44:28;100572.31;;;3.34;100.00
28683;BME280;15862;43.062;25.626;2022-10-19T05:46:53;100574.25;;;3.75;100.00
28683;BME280;15862;43.062;25.626;2022-10-19T05:49:20;100574.78;;;4.94;100.00
28683;BME280;15862;43.062;25.626;2022-10-19T05:51:47;100557.31;;;6.38;100.00
28683;BME280;15862;43.062;25.626;2022-10-19T05:54:12;100525.78;;;7.71;100.00
28683;BME280;15862;43.062;25.626;2022-10-19T05:56:39;100514.88;;;8.75;100.00
28683;BME280;15862;43.062;25.626;2022-10-19T05:59:06;100507.50;;;9.97;100.00
28683;BME280;15862;43.062;25.626;2022-10-19T06:01:33;100508.81;;;11.22;98.63
28683;BME280;15862;43.062;25.626;2022-10-19T06:03:59;100508.94;;;12.31;87.23
28683;BME280;15862;43.062;25.626;2022-10-19T06:06:26;100510.78;;;13.33;71.76
28683;BME280;15862;43.062;25.626;2022-10-19T06:08:53;100506.41;;;14.43;61.28
28683;BME280;15862;43.062;25.626;2022-10-19T06:11:20;100492.97;;;15.21;52.05
28683;BME280;15862;43.062;25.626;2022-10-19T06:13:48;100500.47;;;15.76;49.41
28683;BME280;15862;43.062;25.626;2022-10-19T06:16:16;100499.72;;;16.33;48.23
28683;BME280;15862;43.062;25.626;2022-10-19T06:18:42;100487.25;;;16.56;46.49
28683;BME280;15862;43.062;25.626;2022-10-19T06:21:13;100494.53;;;17.09;44.23
28683;BME280;15862;43.062;25.626;2022-10-19T06:23:39;100497.94;;;17.47;44.30
28683;BME280;15862;43.062;25.626;2022-10-19T06:26:10;100492.72;;;18.10;42.41
28683;BME280;15862;43.062;25.626;2022-10-19T06:28:38;100490.59;;;18.50;40.97
28683;BME280;15862;43.062;25.626;2022-10-19T06:31:04;100484.16;;;18.97;40.00
28683;BME280;15862;43.062;25.626;2022-10-19T06:33:29;100493.59;;;18.72;40.21
28683;BME280;15862;43.062;25.626;2022-10-19T06:36:03;100482.53;;;19.38;39.25
28683;BME280;15862;43.062;25.626;2022-10-19T06:38:29;100475.06;;;20.10;37.53
28683;BME280;15862;43.062;25.626;2022-10-19T06:40:57;100475.44;;;19.90;37.57
28683;BME280;15862;43.062;25.626;2022-10-19T06:43:23;100472.47;;;20.18;37.31
28683;BME280;15862;43.062;25.626;2022-10-19T06:45:48;100469.66;;;21.00;36.17
28683;BME280;15862;43.062;25.626;2022-10-19T06:48:14;100457.63;;;20.66;36.04
28683;BME280;15862;43.062;25.626;2022-10-19T06:50:39;100461.13;;;21.14;35.60
28683;BME280;15862;43.062;25.626;2022-10-19T06:53:04;100461.06;;;20.67;36.46
28683;BME280;15862;43.062;25.626;2022-10-19T06:55:30;100440.72;;;20.61;36.47
28683;BME280;15862;43.062;25.626;2022-10-19T06:57:57;100457.66;;;22.22;34.43
28683;BME280;15862;43.062;25.626;2022-10-19T07:00:23;100448.75;;;23.35;32.49
28683;BME280;15862;43.062;25.626;2022-10-19T07:02:48;100441.31;;;23.53;32.50
28683;BME280;15862;43.062;25.626;2022-10-19T07:05:14;100455.53;;;24.30;31.72
28683;BME280;15862;43.062;25.626;2022-10-19T07:07:39;100450.41;;;24.43;31.11
28683;BME280;15862;43.062;25.626;2022-10-19T07:10:05;100455.34;;;24.67;31.13
28683;BME280;15862;43.062;25.626;2022-10-19T07:12:30;100439.97;;;24.98;30.56
28683;BME280;15862;43.062;25.626;2022-10-19T07:14:56;100447.50;;;24.38;31.53
28683;BME280;15862;43.062;25.626;2022-10-19T07:17:22;100446.19;;;25.39;30.40
28683;BME280;15862;43.062;25.626;2022-10-19T07:19:47;100435.13;;;25.96;29.54
28683;BME280;15862;43.062;25.626;2022-10-19T07:22:13;100426.56;;;26.54;28.80
28683;BME280;15862;43.062;25.626;2022-10-19T07:24:38;100436.81;;;27.21;28.03
28683;BME280;15862;43.062;25.626;2022-10-19T07:27:04;100424.50;;;27.53;27.62
28683;BME280;15862;43.062;25.626;2022-10-19T07:29:29;100426.97;;;27.54;27.72
28683;BME280;15862;43.062;25.626;2022-10-19T07:31:55;100395.06;;;27.67;27.67
28683;BME280;15862;43.062;25.626;2022-10-19T07:34:20;100411.88;;;27.61;27.41
28683;BME280;15862;43.062;25.626;2022-10-19T07:36:47;100411.53;;;27.00;28.45
28683;BME280;15862;43.062;25.626;2022-10-19T07:39:13;100415.72;;;27.52;27.94
28683;BME280;15862;43.062;25.626;2022-10-19T07:41:41;100403.47;;;28.08;27.17
28683;BME280;15862;43.062;25.626;2022-10-19T07:44:06;100401.75;;;28.88;26.12
28683;BME280;15862;43.062;25.626;2022-10-19T07:46:32;100394.41;;;28.59;26.63
28683;BME280;15862;43.062;25.626;2022-10-19T07:48:59;100387.28;;;28.77;27.14
28683;BME280;15862;43.062;25.626;2022-10-19T07:51:25;100391.75;;;29.50;25.88
28683;BME280;15862;43.062;25.626;2022-10-19T07:53:50;100389.75;;;30.11;25.42
28683;BME280;15862;43.062;25.626;2022-10-19T07:56:18;100379.06;;;29.81;25.36
28683;BME280;15862;43.062;25.626;2022-10-19T07:58:44;100383.78;;;30.26;24.88
28683;BME280;15862;43.062;25.626;2022-10-19T08:01:12;100356.63;;;31.50;23.34
28683;BME280;15862;43.062;25.626;2022-10-19T08:03:38;100360.41;;;31.26;23.97
28683;BME280;15862;43.062;25.626;2022-10-19T08:06:09;100371.97;;;31.55;24.30
28683;BME280;15862;43.062;25.626;2022-10-19T08:08:35;100364.69;;;31.39;23.92
28683;BME280;15862;43.062;25.626;2022-10-19T08:11:39;100363.22;;;31.71;24.12
28683;BME280;15862;43.062;25.626;2022-10-19T08:14:04;100349.44;;;31.90;23.82
28683;BME280;15862;43.062;25.626;2022-10-19T08:19:04;100343.03;;;32.63;22.80
28683;BME280;15862;43.062;25.626;2022-10-19T08:21:31;100336.75;;;33.28;22.49
28683;BME280;15862;43.062;25.626;2022-10-19T08:23:57;100330.75;;;34.07;22.34
28683;BME280;15862;43.062;25.626;2022-10-19T08:26:23;100335.69;;;33.67;21.86
28683;BME280;15862;43.062;25.626;2022-10-19T08:28:49;100327.78;;;31.64;23.69
28683;BME280;15862;43.062;25.626;2022-10-19T08:31:18;100318.63;;;29.46;26.36
28683;BME280;15862;43.062;25.626;2022-10-19T08:33:44;100310.06;;;27.10;28.39
28683;BME280;15862;43.062;25.626;2022-10-19T08:36:11;100308.25;;;26.59;29.35
28683;BME280;15862;43.062;25.626;2022-10-19T08:38:38;100315.09;;;27.31;28.81
28683;BME280;15862;43.062;25.626;2022-10-19T08:47:04;100305.81;;;28.28;27.88
28683;BME280;15862;43.062;25.626;2022-10-19T08:49:35;100293.38;;;28.22;27.12
28683;BME280;15862;43.062;25.626;2022-10-19T08:52:05;100303.25;;;28.63;26.48
28683;BME280;15862;43.062;25.626;2022-10-19T08:54:39;100295.00;;;29.49;25.79
28683;BME280;15862;43.062;25.626;2022-10-19T09:00:23;100295.53;;;31.54;22.86
28683;BME280;15862;43.062;25.626;2022-10-19T09:06:07;100292.16;;;32.63;22.19
28683;BME280;15862;43.062;25.626;2022-10-19T09:08:38;100283.63;;;32.66;21.67
28683;BME280;15862;43.062;25.626;2022-10-19T09:11:05;100280.63;;;33.00;21.30
28683;BME280;15862;43.062;25.626;2022-10-19T09:13:42;100272.06;;;32.82;21.66
28683;BME280;15862;43.062;25.626;2022-10-19T09:16:14;100277.00;;;33.28;20.20
28683;BME280;15862;43.062;25.626;2022-10-19T09:18:41;100274.81;;;34.25;20.21
28683;BME280;15862;43.062;25.626;2022-10-19T09:21:19;100257.28;;;34.49;19.38
28683;BME280;15862;43.062;25.626;2022-10-19T09:23:57;100263.19;;;34.15;20.14
28683;BME280;15862;43.062;25.626;2022-10-19T09:26:28;100257.59;;;34.99;19.69
28683;BME280;15862;43.062;25.626;2022-10-19T09:29:03;100258.78;;;34.35;20.47
28683;BME280;15862;43.062;25.626;2022-10-19T09:34:04;100253.13;;;34.31;19.74
28683;BME280;15862;43.062;25.626;2022-10-19T09:36:37;100256.44;;;34.85;19.01
28683;BME280;15862;43.062;25.626;2022-10-19T09:39:04;100250.41;;;35.95;18.98
28683;BME280;15862;43.062;25.626;2022-10-19T09:41:30;100257.69;;;36.29;18.55
28683;BME280;15862;43.062;25.626;2022-10-19T09:43:57;100250.38;;;36.35;18.37
28683;BME280;15862;43.062;25.626;2022-10-19T09:46:34;100246.09;;;36.29;18.85
28683;BME280;15862;43.062;25.626;2022-10-19T09:49:03;100233.53;;;35.28;18.25
28683;BME280;15862;43.062;25.626;2022-10-19T09:51:44;100229.03;;;34.83;19.23
28683;BME280;15862;43.062;25.626;2022-10-19T09:54:30;100227.22;;;35.74;18.85
28683;BME280;15862;43.062;25.626;2022-10-19T09:56:56;100229.88;;;36.64;18.01
28683;BME280;15862;43.062;25.626;2022-10-19T09:59:24;100231.50;;;36.74;18.34
28683;BME280;15862;43.062;25.626;2022-10-19T10:04:35;100222.44;;;37.19;18.72
28683;BME280;15862;43.062;25.626;2022-10-19T10:07:02;100222.16;;;38.40;17.10
28683;BME280;15862;43.062;25.626;2022-10-19T10:09:28;100213.16;;;36.71;17.58
28683;BME280;15862;43.062;25.626;2022-10-19T10:11:56;100219.94;;;37.42;17.75
28683;BME280;15862;43.062;25.626;2022-10-19T10:14:27;100212.16;;;36.38;18.30
28683;BME280;15862;43.062;25.626;2022-10-19T10:17:15;100203.66;;;37.52;17.35
28683;BME280;15862;43.062;25.626;2022-10-19T10:22:29;100200.63;;;37.10;17.11
28683;BME280;15862;43.062;25.626;2022-10-19T10:24:56;100191.16;;;36.05;17.86
28683;BME280;15862;43.062;25.626;2022-10-19T10:27:39;100205.06;;;36.81;17.38
28683;BME280;15862;43.062;25.626;2022-10-19T10:30:09;100195.91;;;36.77;17.40
28683;BME280;15862;43.062;25.626;2022-10-19T10:32:41;100189.13;;;35.06;18.63
28683;BME280;15862;43.062;25.626;2022-10-19T10:35:24;100189.81;;;35.78;18.71
28683;BME280;15862;43.062;25.626;2022-10-19T10:38:12;100179.28;;;36.46;17.97
28683;BME280;15862;43.062;25.626;2022-10-19T10:40:38;100178.72;;;37.32;17.15
28683;BME280;15862;43.062;25.626;2022-10-19T10:43:07;100188.53;;;37.08;17.56
28683;BME280;15862;43.062;25.626;2022-10-19T10:45:41;100181.28;;;36.98;16.92
28683;BME280;15862;43.062;25.626;2022-10-19T10:50:42;100175.38;;;37.83;16.94
28683;BME280;15862;43.062;25.626;2022-10-19T10:53:36;100173.53;;;38.07;15.91
28683;BME280;15862;43.062;25.626;2022-10-19T10:56:04;100168.50;;;36.51;16.79
28683;BME280;15862;43.062;25.626;2022-10-19T11:01:23;100152.59;;;37.94;16.21
28683;BME280;15862;43.062;25.626;2022-10-19T11:04:15;100154.22;;;38.46;15.92
28683;BME280;15862;43.062;25.626;2022-10-19T11:07:16;100148.72;;;38.98;15.62
28683;BME280;15862;43.062;25.626;2022-10-19T11:12:45;100133.72;;;37.89;15.54
28683;BME280;15862;43.062;25.626;2022-10-19T11:15:32;100136.88;;;37.34;16.11
28683;BME280;15862;43.062;25.626;2022-10-19T11:18:14;100122.81;;;35.96;17.27
28683;BME280;15862;43.062;25.626;2022-10-19T11:21:34;100122.13;;;36.59;17.00
28683;BME280;15862;43.062;25.626;2022-10-19T11:23:45;100126.50;;;35.25;17.32
28683;BME280;15862;43.062;25.626;2022-10-19T11:32:03;100103.56;;;36.52;16.78
28683;BME280;15862;43.062;25.626;2022-10-19T11:35:01;100102.41;;;34.13;18.63
28683;BME280;15862;43.062;25.626;2022-10-19T11:37:41;100095.03;;;34.45;18.16
28683;BME280;15862;43.062;25.626;2022-10-19T11:46:18;100089.16;;;35.39;16.47
28683;BME280;15862;43.062;25.626;2022-10-19T11:56:40;100081.81;;;36.34;17.04
28683;BME280;15862;43.062;25.626;2022-10-19T11:59:27;100060.63;;;35.97;16.85
28683;BME280;15862;43.062;25.626;2022-10-19T12:12:34;100076.25;;;35.51;16.66
28683;BME280;15862;43.062;25.626;2022-10-19T12:15:19;100059.28;;;35.06;16.74
28683;BME280;15862;43.062;25.626;2022-10-19T12:17:50;100071.03;;;34.80;17.41
28683;BME280;15862;43.062;25.626;2022-10-19T12:20:27;100060.34;;;35.05;17.55
28683;BME280;15862;43.062;25.626;2022-10-19T12:22:56;100052.56;;;35.08;17.00
28683;BME280;15862;43.062;25.626;2022-10-19T12:25:23;100059.25;;;34.96;17.51
28683;BME280;15862;43.062;25.626;2022-10-19T12:27:50;100049.94;;;34.42;17.03
28683;BME280;15862;43.062;25.626;2022-10-19T12:30:22;100039.03;;;34.07;17.20
28683;BME280;15862;43.062;25.626;2022-10-19T12:33:02;100038.50;;;34.05;17.42
28683;BME280;15862;43.062;25.626;2022-10-19T12:38:38;100023.81;;;34.23;17.88
28683;BME280;15862;43.062;25.626;2022-10-19T12:41:24;100020.28;;;34.17;18.08
28683;BME280;15862;43.062;25.626;2022-10-19T12:46:46;100035.81;;;34.10;17.94
28683;BME280;15862;43.062;25.626;2022-10-19T12:51:59;100022.91;;;34.68;18.17
28683;BME280;15862;43.062;25.626;2022-10-19T12:54:33;100025.88;;;33.64;18.41
28683;BME280;15862;43.062;25.626;2022-10-19T12:57:02;100017.72;;;33.49;18.38
28683;BME280;15862;43.062;25.626;2022-10-19T12:59:33;100012.06;;;34.33;17.90
28683;BME280;15862;43.062;25.626;2022-10-19T13:02:00;100017.69;;;33.86;18.42
28683;BME280;15862;43.062;25.626;2022-10-19T13:04:32;100023.84;;;33.14;18.93
28683;BME280;15862;43.062;25.626;2022-10-19T13:07:03;100016.22;;;29.78;21.11
28683;BME280;15862;43.062;25.626;2022-10-19T13:09:38;100008.94;;;27.62;23.34
28683;BME280;15862;43.062;25.626;2022-10-19T13:22:38;100008.09;;;23.15;28.74
28683;BME280;15862;43.062;25.626;2022-10-19T13:25:40;100003.88;;;22.79;29.35
28683;BME280;15862;43.062;25.626;2022-10-19T13:38:27;99989.13;;;21.71;31.39
28683;BME280;15862;43.062;25.626;2022-10-19T13:43:40;99986.31;;;21.58;31.03
28683;BME280;15862;43.062;25.626;2022-10-19T14:00:08;99976.66;;;21.36;31.17
28683;BME280;15862;43.062;25.626;2022-10-19T14:11:11;99965.03;;;20.94;33.44
28683;BME280;15862;43.062;25.626;2022-10-19T14:13:38;99955.44;;;20.78;33.56
28683;BME280;15862;43.062;25.626;2022-10-19T14:16:04;99954.16;;;20.74;32.59
28683;BME280;15862;43.062;25.626;2022-10-19T14:18:34;99926.56;;;20.56;33.28
28683;BME280;15862;43.062;25.626;2022-10-19T14:21:02;99956.03;;;20.66;33.82
28683;BME280;15862;43.062;25.626;2022-10-19T14:23:31;99953.94;;;20.62;33.93
28683;BME280;15862;43.062;25.626;2022-10-19T14:26:02;99958.25;;;20.55;33.58
28683;BME280;15862;43.062;25.626;2022-10-19T14:28:30;99954.38;;;20.43;33.33
28683;BME280;15862;43.062;25.626;2022-10-19T14:31:02;99946.56;;;20.35;34.30
28683;BME280;15862;43.062;25.626;2022-10-19T14:33:32;99945.59;;;20.28;33.72
28683;BME280;15862;43.062;25.626;2022-10-19T14:35:58;99952.72;;;20.19;35.38
28683;BME280;15862;43.062;25.626;2022-10-19T14:38:33;99948.00;;;20.07;37.44
28683;BME280;15862;43.062;25.626;2022-10-19T14:41:28;99953.31;;;19.91;37.86
28683;BME280;15862;43.062;25.626;2022-10-19T14:46:59;99953.13;;;19.46;39.61
28683;BME280;15862;43.062;25.626;2022-10-19T14:49:25;99964.63;;;19.21;41.35
28683;BME280;15862;43.062;25.626;2022-10-19T14:51:53;99960.69;;;19.02;43.02
28683;BME280;15862;43.062;25.626;2022-10-19T15:01:58;99967.38;;;18.07;45.67
28683;BME280;15862;43.062;25.626;2022-10-19T15:04:34;99974.94;;;17.85;48.22
28683;BME280;15862;43.062;25.626;2022-10-19T15:07:02;99977.53;;;17.52;50.01
28683;BME280;15862;43.062;25.626;2022-10-19T15:09:31;99970.28;;;17.38;53.95
28683;BME280;15862;43.062;25.626;2022-10-19T15:12:07;99976.16;;;16.97;56.46
28683;BME280;15862;43.062;25.626;2022-10-19T15:14:34;99978.78;;;16.62;60.08
28683;BME280;15862;43.062;25.626;2022-10-19T15:17:02;99985.56;;;16.38;65.45
28683;BME280;15862;43.062;25.626;2022-10-19T15:19:32;99986.06;;;16.14;67.90
28683;BME280;15862;43.062;25.626;2022-10-19T15:30:21;99989.91;;;15.19;76.37